Hollywood, Arkansas
Current Conditions -  °F | °C
As of 1:56 PM on Thursday 30 Oct 2014 (Local Time) from KADF Reporting Station
Clear Clear  
Wind Chill: 72°   Ceiling: Unl
Heat Index: 72°   Visibility: 10mi
Dew Point: 55°   Wind: 8mph
Humidity: 55%   Direction: 230°SW
Pressure: 30.09"   Gusts: NA
Location:  34.0941°N, 93.0475°W
Report Text: KADF 301856Z AUTO 23007KT 10SM CLR 22/13 A3009 RMK AO2 T02220127 SLP204
Loading
Personal Weather Stations






























Interactive Weather Map
Tropical Storm Tracking
New forecast layout! Learn more

10-Day Weather Forecast

Advertisements
Track Severe Weather on mobile